sensor_id;sensor_type;location;lat;lon;timestamp;P1;P2;P0
44933;PMS3003;30667;43.614;1.442;2023-04-25T00:00:19;3.00;3.00;1.00
44933;PMS3003;30667;43.614;1.442;2023-04-25T00:02:45;3.75;3.00;1.00
44933;PMS3003;30667;43.614;1.442;2023-04-25T00:05:11;3.00;3.00;1.00
44933;PMS3003;30667;43.614;1.442;2023-04-25T00:07:37;6.00;4.00;0.00
44933;PMS3003;30667;43.614;1.442;2023-04-25T00:10:03;4.00;3.00;1.00
44933;PMS3003;30667;43.614;1.442;2023-04-25T00:12:29;3.20;3.00;1.00
44933;PMS3003;30667;43.614;1.442;2023-04-25T00:14:54;4.00;3.50;1.00
44933;PMS3003;30667;43.614;1.442;2023-04-25T00:17:22;3.60;3.60;1.00
44933;PMS3003;30667;43.614;1.442;2023-04-25T00:19:49;5.60;5.60;1.00
44933;PMS3003;30667;43.614;1.442;2023-04-25T00:22:15;2.00;2.00;0.75
44933;PMS3003;30667;43.614;1.442;2023-04-25T00:24:40;3.00;3.00;0.50
44933;PMS3003;30667;43.614;1.442;2023-04-25T00:27:06;3.50;3.00;0.50
44933;PMS3003;30667;43.614;1.442;2023-04-25T00:29:31;3.00;3.00;1.00
44933;PMS3003;30667;43.614;1.442;2023-04-25T00:31:57;6.00;4.00;2.00
44933;PMS3003;30667;43.614;1.442;2023-04-25T00:34:22;6.00;3.25;1.00
44933;PMS3003;30667;43.614;1.442;2023-04-25T00:36:48;4.00;4.00;1.00
44933;PMS3003;30667;43.614;1.442;2023-04-25T00:39:13;3.50;3.50;1.00
44933;PMS3003;30667;43.614;1.442;2023-04-25T00:41:39;4.00;4.00;2.00
44933;PMS3003;30667;43.614;1.442;2023-04-25T00:44:05;6.00;6.00;1.40
44933;PMS3003;30667;43.614;1.442;2023-04-25T00:46:32;3.60;3.60;1.00
44933;PMS3003;30667;43.614;1.442;2023-04-25T00:48:57;3.50;3.00;1.00
44933;PMS3003;30667;43.614;1.442;2023-04-25T00:51:23;6.50;3.00;1.00
44933;PMS3003;30667;43.614;1.442;2023-04-25T00:53:50;3.60;3.60;1.00
44933;PMS3003;30667;43.614;1.442;2023-04-25T00:56:16;4.00;4.00;1.00
44933;PMS3003;30667;43.614;1.442;2023-04-25T00:58:42;4.00;4.00;1.50
44933;PMS3003;30667;43.614;1.442;2023-04-25T01:01:08;6.40;6.00;2.00
44933;PMS3003;30667;43.614;1.442;2023-04-25T01:03:34;7.40;6.00;2.00
44933;PMS3003;30667;43.614;1.442;2023-04-25T01:06:06;5.00;3.00;1.00
44933;PMS3003;30667;43.614;1.442;2023-04-25T01:08:33;4.80;3.60;1.00
44933;PMS3003;30667;43.614;1.442;2023-04-25T01:10:59;4.40;4.40;1.00
44933;PMS3003;30667;43.614;1.442;2023-04-25T01:13:24;3.00;3.00;1.00
44933;PMS3003;30667;43.614;1.442;2023-04-25T01:15:50;3.50;3.00;1.00
44933;PMS3003;30667;43.614;1.442;2023-04-25T01:18:15;6.00;4.00;1.00
44933;PMS3003;30667;43.614;1.442;2023-04-25T01:20:41;4.00;4.00;1.00
44933;PMS3003;30667;43.614;1.442;2023-04-25T01:23:07;4.00;4.00;1.00
44933;PMS3003;30667;43.614;1.442;2023-04-25T01:25:33;3.00;3.00;1.00
44933;PMS3003;30667;43.614;1.442;2023-04-25T01:27:59;3.00;3.00;1.00
44933;PMS3003;30667;43.614;1.442;2023-04-25T01:30:25;3.50;3.00;1.00
44933;PMS3003;30667;43.614;1.442;2023-04-25T01:32:52;3.00;3.00;1.00
44933;PMS3003;30667;43.614;1.442;2023-04-25T01:35:20;3.00;3.00;1.00
44933;PMS3003;30667;43.614;1.442;2023-04-25T01:37:47;3.00;2.00;0.00
44933;PMS3003;30667;43.614;1.442;2023-04-25T01:40:12;2.00;2.00;0.25
44933;PMS3003;30667;43.614;1.442;2023-04-25T01:42:39;1.00;1.00;0.00
44933;PMS3003;30667;43.614;1.442;2023-04-25T01:45:07;0.60;0.60;0.00
44933;PMS3003;30667;43.614;1.442;2023-04-25T01:47:33;1.20;1.00;0.00
44933;PMS3003;30667;43.614;1.442;2023-04-25T01:50:03;1.00;1.00;0.00
44933;PMS3003;30667;43.614;1.442;2023-04-25T01:52:29;1.00;1.00;0.00
44933;PMS3003;30667;43.614;1.442;2023-04-25T01:54:55;0.00;0.00;0.00
44933;PMS3003;30667;43.614;1.442;2023-04-25T01:57:22;0.60;0.60;0.00
44933;PMS3003;30667;43.614;1.442;2023-04-25T01:59:48;0.00;0.00;0.00
44933;PMS3003;30667;43.614;1.442;2023-04-25T02:02:15;1.00;1.00;0.00
44933;PMS3003;30667;43.614;1.442;2023-04-25T02:04:40;1.00;1.00;0.00
44933;PMS3003;30667;43.614;1.442;2023-04-25T02:07:05;1.25;1.00;0.00
44933;PMS3003;30667;43.614;1.442;2023-04-25T02:09:31;0.00;0.00;0.00
44933;PMS3003;30667;43.614;1.442;2023-04-25T02:11:57;1.00;1.00;0.00
44933;PMS3003;30667;43.614;1.442;2023-04-25T02:14:23;0.00;0.00;0.00
44933;PMS3003;30667;43.614;1.442;2023-04-25T02:16:48;0.00;0.00;0.00
44933;PMS3003;30667;43.614;1.442;2023-04-25T02:19:14;1.00;1.00;0.00
44933;PMS3003;30667;43.614;1.442;2023-04-25T02:21:39;0.75;0.00;0.00
44933;PMS3003;30667;43.614;1.442;2023-04-25T02:24:05;0.00;0.00;0.00
44933;PMS3003;30667;43.614;1.442;2023-04-25T02:26:30;0.00;0.00;0.00
44933;PMS3003;30667;43.614;1.442;2023-04-25T02:28:56;0.00;0.00;0.00
44933;PMS3003;30667;43.614;1.442;2023-04-25T02:31:22;0.60;0.60;0.00
44933;PMS3003;30667;43.614;1.442;2023-04-25T02:33:47;0.00;0.00;0.00
44933;PMS3003;30667;43.614;1.442;2023-04-25T02:36:13;0.20;0.20;0.00
44933;PMS3003;30667;43.614;1.442;2023-04-25T02:38:39;0.00;0.00;0.00
44933;PMS3003;30667;43.614;1.442;2023-04-25T02:41:04;0.00;0.00;0.00
44933;PMS3003;30667;43.614;1.442;2023-04-25T02:43:30;0.00;0.00;0.00
44933;PMS3003;30667;43.614;1.442;2023-04-25T02:45:55;0.00;0.00;0.00
44933;PMS3003;30667;43.614;1.442;2023-04-25T02:48:21;0.00;0.00;0.00
44933;PMS3003;30667;43.614;1.442;2023-04-25T02:50:46;0.00;0.00;0.00
44933;PMS3003;30667;43.614;1.442;2023-04-25T02:53:11;0.75;0.00;0.00
44933;PMS3003;30667;43.614;1.442;2023-04-25T02:55:37;0.00;0.00;0.00
44933;PMS3003;30667;43.614;1.442;2023-04-25T02:58:02;0.75;0.75;0.00
44933;PMS3003;30667;43.614;1.442;2023-04-25T03:00:28;0.00;0.00;0.00
44933;PMS3003;30667;43.614;1.442;2023-04-25T03:02:54;0.00;0.00;0.00
44933;PMS3003;30667;43.614;1.442;2023-04-25T03:05:20;0.00;0.00;0.00
44933;PMS3003;30667;43.614;1.442;2023-04-25T03:07:45;0.00;0.00;0.00
44933;PMS3003;30667;43.614;1.442;2023-04-25T03:10:11;1.00;0.00;0.00
44933;PMS3003;30667;43.614;1.442;2023-04-25T03:12:37;0.75;0.00;0.00
44933;PMS3003;30667;43.614;1.442;2023-04-25T03:15:02;0.00;0.00;0.00
44933;PMS3003;30667;43.614;1.442;2023-04-25T03:17:29;0.00;0.00;0.00
44933;PMS3003;30667;43.614;1.442;2023-04-25T03:19:54;0.75;0.00;0.00
44933;PMS3003;30667;43.614;1.442;2023-04-25T03:22:20;0.00;0.00;0.00
44933;PMS3003;30667;43.614;1.442;2023-04-25T03:24:46;0.00;0.00;0.00
44933;PMS3003;30667;43.614;1.442;2023-04-25T03:27:12;0.00;0.00;0.00
44933;PMS3003;30667;43.614;1.442;2023-04-25T03:29:37;0.00;0.00;0.00
44933;PMS3003;30667;43.614;1.442;2023-04-25T03:32:03;0.75;0.00;0.00
44933;PMS3003;30667;43.614;1.442;2023-04-25T03:34:28;0.00;0.00;0.00
44933;PMS3003;30667;43.614;1.442;2023-04-25T03:36:54;0.00;0.00;0.00
44933;PMS3003;30667;43.614;1.442;2023-04-25T03:39:20;0.00;0.00;0.00
44933;PMS3003;30667;43.614;1.442;2023-04-25T03:41:45;0.00;0.00;0.00
44933;PMS3003;30667;43.614;1.442;2023-04-25T03:44:10;0.00;0.00;0.00
44933;PMS3003;30667;43.614;1.442;2023-04-25T03:46:36;0.00;0.00;0.00
44933;PMS3003;30667;43.614;1.442;2023-04-25T03:49:01;0.00;0.00;0.00
44933;PMS3003;30667;43.614;1.442;2023-04-25T03:51:27;5.00;3.75;0.25
44933;PMS3003;30667;43.614;1.442;2023-04-25T03:53:52;0.00;0.00;0.00
44933;PMS3003;30667;43.614;1.442;2023-04-25T03:56:18;0.00;0.00;0.00
44933;PMS3003;30667;43.614;1.442;2023-04-25T03:58:43;0.00;0.00;0.00
44933;PMS3003;30667;43.614;1.442;2023-04-25T04:01:09;0.75;0.75;0.00
44933;PMS3003;30667;43.614;1.442;2023-04-25T04:03:35;0.00;0.00;0.00
44933;PMS3003;30667;43.614;1.442;2023-04-25T04:06:01;0.00;0.00;0.00
44933;PMS3003;30667;43.614;1.442;2023-04-25T04:08:28;0.00;0.00;0.00
44933;PMS3003;30667;43.614;1.442;2023-04-25T04:10:54;0.50;0.00;0.00
44933;PMS3003;30667;43.614;1.442;2023-04-25T04:13:20;0.00;0.00;0.00
44933;PMS3003;30667;43.614;1.442;2023-04-25T04:15:45;0.00;0.00;0.00
44933;PMS3003;30667;43.614;1.442;2023-04-25T04:18:10;0.00;0.00;0.00
44933;PMS3003;30667;43.614;1.442;2023-04-25T04:20:36;0.00;0.00;0.00
44933;PMS3003;30667;43.614;1.442;2023-04-25T04:23:01;0.00;0.00;0.00
44933;PMS3003;30667;43.614;1.442;2023-04-25T04:25:27;0.25;0.25;0.00
44933;PMS3003;30667;43.614;1.442;2023-04-25T04:27:53;0.00;0.00;0.00
44933;PMS3003;30667;43.614;1.442;2023-04-25T04:30:21;1.00;1.00;0.00
44933;PMS3003;30667;43.614;1.442;2023-04-25T04:32:49;0.00;0.00;0.00
44933;PMS3003;30667;43.614;1.442;2023-04-25T04:35:15;1.00;0.40;0.00
44933;PMS3003;30667;43.614;1.442;2023-04-25T04:37:40;0.00;0.00;0.00
44933;PMS3003;30667;43.614;1.442;2023-04-25T04:40:06;0.00;0.00;0.00
44933;PMS3003;30667;43.614;1.442;2023-04-25T04:42:32;0.80;0.80;0.00
44933;PMS3003;30667;43.614;1.442;2023-04-25T04:44:57;0.00;0.00;0.00
44933;PMS3003;30667;43.614;1.442;2023-04-25T04:47:23;1.75;0.25;0.00
44933;PMS3003;30667;43.614;1.442;2023-04-25T04:49:50;1.00;1.00;0.00
44933;PMS3003;30667;43.614;1.442;2023-04-25T04:52:16;0.00;0.00;0.00
44933;PMS3003;30667;43.614;1.442;2023-04-25T04:54:41;0.00;0.00;0.00
44933;PMS3003;30667;43.614;1.442;2023-04-25T04:57:06;0.00;0.00;0.00
44933;PMS3003;30667;43.614;1.442;2023-04-25T04:59:32;0.00;0.00;0.00
44933;PMS3003;30667;43.614;1.442;2023-04-25T05:01:57;1.00;1.00;0.00
44933;PMS3003;30667;43.614;1.442;2023-04-25T05:04:23;1.00;1.00;0.00
44933;PMS3003;30667;43.614;1.442;2023-04-25T05:06:48;0.00;0.00;0.00
44933;PMS3003;30667;43.614;1.442;2023-04-25T05:09:14;0.00;0.00;0.00
44933;PMS3003;30667;43.614;1.442;2023-04-25T05:11:40;0.00;0.00;0.00
44933;PMS3003;30667;43.614;1.442;2023-04-25T05:14:05;0.50;0.50;0.00
44933;PMS3003;30667;43.614;1.442;2023-04-25T05:16:30;1.50;1.00;0.00
44933;PMS3003;30667;43.614;1.442;2023-04-25T05:18:56;0.00;0.00;0.00
44933;PMS3003;30667;43.614;1.442;2023-04-25T05:21:21;0.00;0.00;0.00
44933;PMS3003;30667;43.614;1.442;2023-04-25T05:23:47;1.00;1.00;0.00
44933;PMS3003;30667;43.614;1.442;2023-04-25T05:26:12;0.00;0.00;0.00
44933;PMS3003;30667;43.614;1.442;2023-04-25T05:28:41;0.80;0.80;0.00
44933;PMS3003;30667;43.614;1.442;2023-04-25T05:31:07;1.00;1.00;0.00
44933;PMS3003;30667;43.614;1.442;2023-04-25T05:33:34;1.20;1.00;0.00
44933;PMS3003;30667;43.614;1.442;2023-04-25T05:36:00;1.00;1.00;0.00
44933;PMS3003;30667;43.614;1.442;2023-04-25T05:38:25;1.00;1.00;0.00
44933;PMS3003;30667;43.614;1.442;2023-04-25T05:40:51;1.00;1.00;0.00
44933;PMS3003;30667;43.614;1.442;2023-04-25T05:43:16;1.25;1.00;0.00
44933;PMS3003;30667;43.614;1.442;2023-04-25T05:45:42;1.50;1.00;0.00
44933;PMS3003;30667;43.614;1.442;2023-04-25T05:48:07;0.00;0.00;0.00
44933;PMS3003;30667;43.614;1.442;2023-04-25T05:50:32;1.00;1.00;0.00
44933;PMS3003;30667;43.614;1.442;2023-04-25T05:52:59;2.00;1.00;0.00
44933;PMS3003;30667;43.614;1.442;2023-04-25T05:55:24;1.00;1.00;0.00
44933;PMS3003;30667;43.614;1.442;2023-04-25T05:57:50;2.50;2.00;0.00
44933;PMS3003;30667;43.614;1.442;2023-04-25T06:00:15;1.75;1.00;0.00
44933;PMS3003;30667;43.614;1.442;2023-04-25T06:02:41;1.00;1.00;0.00
44933;PMS3003;30667;43.614;1.442;2023-04-25T06:05:07;0.80;0.80;0.00
44933;PMS3003;30667;43.614;1.442;2023-04-25T06:07:33;1.00;1.00;0.00
44933;PMS3003;30667;43.614;1.442;2023-04-25T06:09:59;1.00;1.00;0.00
44933;PMS3003;30667;43.614;1.442;2023-04-25T06:12:25;0.40;0.40;0.00
44933;PMS3003;30667;43.614;1.442;2023-04-25T06:14:51;1.00;1.00;0.00
44933;PMS3003;30667;43.614;1.442;2023-04-25T06:17:16;1.00;1.00;0.00
44933;PMS3003;30667;43.614;1.442;2023-04-25T06:19:42;2.00;2.00;1.00
44933;PMS3003;30667;43.614;1.442;2023-04-25T06:22:07;4.00;3.25;1.00
44933;PMS3003;30667;43.614;1.442;2023-04-25T06:24:33;1.00;1.00;0.00
44933;PMS3003;30667;43.614;1.442;2023-04-25T06:26:59;2.00;1.40;0.00
44933;PMS3003;30667;43.614;1.442;2023-04-25T06:29:25;1.00;1.00;0.00
44933;PMS3003;30667;43.614;1.442;2023-04-25T06:31:50;1.00;1.00;0.00
44933;PMS3003;30667;43.614;1.442;2023-04-25T06:34:16;1.00;1.00;0.00
44933;PMS3003;30667;43.614;1.442;2023-04-25T06:36:41;0.50;0.50;0.00
44933;PMS3003;30667;43.614;1.442;2023-04-25T06:39:06;2.00;2.00;0.00
44933;PMS3003;30667;43.614;1.442;2023-04-25T06:41:32;0.00;0.00;0.00
44933;PMS3003;30667;43.614;1.442;2023-04-25T06:43:57;1.00;1.00;0.00
44933;PMS3003;30667;43.614;1.442;2023-04-25T06:46:23;1.00;1.00;0.00
44933;PMS3003;30667;43.614;1.442;2023-04-25T06:48:48;0.00;0.00;0.00
44933;PMS3003;30667;43.614;1.442;2023-04-25T06:51:13;1.00;1.00;0.00
44933;PMS3003;30667;43.614;1.442;2023-04-25T06:53:42;0.50;0.50;0.00
44933;PMS3003;30667;43.614;1.442;2023-04-25T06:56:07;0.00;0.00;0.00
44933;PMS3003;30667;43.614;1.442;2023-04-25T06:58:33;1.25;0.75;0.00
44933;PMS3003;30667;43.614;1.442;2023-04-25T07:00:58;1.00;1.00;0.00
44933;PMS3003;30667;43.614;1.442;2023-04-25T07:03:23;4.00;3.50;1.00
44933;PMS3003;30667;43.614;1.442;2023-04-25T07:05:49;0.75;0.75;0.00
44933;PMS3003;30667;43.614;1.442;2023-04-25T07:08:15;1.60;1.60;0.00
44933;PMS3003;30667;43.614;1.442;2023-04-25T07:10:41;0.50;0.50;0.00
44933;PMS3003;30667;43.614;1.442;2023-04-25T07:13:07;1.00;1.00;0.00
44933;PMS3003;30667;43.614;1.442;2023-04-25T07:15:32;1.50;1.00;0.00
44933;PMS3003;30667;43.614;1.442;2023-04-25T07:17:58;1.00;1.00;0.00
44933;PMS3003;30667;43.614;1.442;2023-04-25T07:20:24;0.00;0.00;0.00
44933;PMS3003;30667;43.614;1.442;2023-04-25T07:22:49;0.00;0.00;0.00
44933;PMS3003;30667;43.614;1.442;2023-04-25T07:25:15;0.00;0.00;0.00
44933;PMS3003;30667;43.614;1.442;2023-04-25T07:27:41;0.00;0.00;0.00
44933;PMS3003;30667;43.614;1.442;2023-04-25T07:30:07;0.00;0.00;0.00
44933;PMS3003;30667;43.614;1.442;2023-04-25T07:32:33;0.00;0.00;0.00
44933;PMS3003;30667;43.614;1.442;2023-04-25T07:34:58;0.00;0.00;0.00
44933;PMS3003;30667;43.614;1.442;2023-04-25T07:37:24;0.00;0.00;0.00
44933;PMS3003;30667;43.614;1.442;2023-04-25T07:39:51;0.00;0.00;0.00
44933;PMS3003;30667;43.614;1.442;2023-04-25T07:42:16;0.25;0.25;0.00
44933;PMS3003;30667;43.614;1.442;2023-04-25T07:44:41;0.00;0.00;0.00
44933;PMS3003;30667;43.614;1.442;2023-04-25T07:47:07;0.25;0.25;0.00
44933;PMS3003;30667;43.614;1.442;2023-04-25T07:49:34;0.20;0.20;0.00
44933;PMS3003;30667;43.614;1.442;2023-04-25T07:52:00;0.00;0.00;0.00
44933;PMS3003;30667;43.614;1.442;2023-04-25T07:54:26;0.00;0.00;0.00
44933;PMS3003;30667;43.614;1.442;2023-04-25T07:56:51;0.50;0.00;0.00
44933;PMS3003;30667;43.614;1.442;2023-04-25T07:59:17;0.00;0.00;0.00
44933;PMS3003;30667;43.614;1.442;2023-04-25T08:01:42;0.25;0.25;0.00
44933;PMS3003;30667;43.614;1.442;2023-04-25T08:04:07;1.00;0.75;0.00
44933;PMS3003;30667;43.614;1.442;2023-04-25T08:06:33;1.00;1.00;0.00
44933;PMS3003;30667;43.614;1.442;2023-04-25T08:08:58;1.00;1.00;0.00
44933;PMS3003;30667;43.614;1.442;2023-04-25T08:11:23;0.00;0.00;0.00
44933;PMS3003;30667;43.614;1.442;2023-04-25T08:13:50;0.00;0.00;0.00
44933;PMS3003;30667;43.614;1.442;2023-04-25T08:16:15;1.00;1.00;0.00
44933;PMS3003;30667;43.614;1.442;2023-04-25T08:18:41;0.25;0.00;0.00
44933;PMS3003;30667;43.614;1.442;2023-04-25T08:21:07;0.60;0.00;0.00
44933;PMS3003;30667;43.614;1.442;2023-04-25T08:23:33;0.00;0.00;0.00
44933;PMS3003;30667;43.614;1.442;2023-04-25T08:25:59;0.00;0.00;0.00
44933;PMS3003;30667;43.614;1.442;2023-04-25T08:28:25;0.00;0.00;0.00
44933;PMS3003;30667;43.614;1.442;2023-04-25T08:30:50;0.00;0.00;0.00
44933;PMS3003;30667;43.614;1.442;2023-04-25T08:33:16;0.00;0.00;0.00
44933;PMS3003;30667;43.614;1.442;2023-04-25T08:35:41;0.00;0.00;0.00
44933;PMS3003;30667;43.614;1.442;2023-04-25T08:38:06;0.00;0.00;0.00
44933;PMS3003;30667;43.614;1.442;2023-04-25T08:40:32;0.00;0.00;0.00
44933;PMS3003;30667;43.614;1.442;2023-04-25T08:43:02;0.60;0.60;0.00
44933;PMS3003;30667;43.614;1.442;2023-04-25T08:45:29;2.00;1.00;0.00
44933;PMS3003;30667;43.614;1.442;2023-04-25T08:47:57;0.00;0.00;0.00
44933;PMS3003;30667;43.614;1.442;2023-04-25T08:50:23;0.00;0.00;0.00
44933;PMS3003;30667;43.614;1.442;2023-04-25T08:52:51;0.00;0.00;0.00
44933;PMS3003;30667;43.614;1.442;2023-04-25T08:55:18;0.00;0.00;0.00
44933;PMS3003;30667;43.614;1.442;2023-04-25T08:57:45;0.00;0.00;0.00
44933;PMS3003;30667;43.614;1.442;2023-04-25T09:00:12;1.00;1.00;0.00
44933;PMS3003;30667;43.614;1.442;2023-04-25T09:02:42;1.00;1.00;0.00
44933;PMS3003;30667;43.614;1.442;2023-04-25T09:05:08;1.00;1.00;0.00
44933;PMS3003;30667;43.614;1.442;2023-04-25T09:07:34;1.00;1.00;0.00
44933;PMS3003;30667;43.614;1.442;2023-04-25T09:10:00;1.00;0.00;0.00
44933;PMS3003;30667;43.614;1.442;2023-04-25T09:12:28;0.40;0.40;0.00
44933;PMS3003;30667;43.614;1.442;2023-04-25T09:17:56;1.00;1.00;0.00
44933;PMS3003;30667;43.614;1.442;2023-04-25T09:20:22;0.80;0.00;0.00
44933;PMS3003;30667;43.614;1.442;2023-04-25T09:22:47;1.00;1.00;0.00
44933;PMS3003;30667;43.614;1.442;2023-04-25T09:25:13;0.50;0.00;0.00
44933;PMS3003;30667;43.614;1.442;2023-04-25T09:27:50;0.20;0.20;0.00
44933;PMS3003;30667;43.614;1.442;2023-04-25T09:30:17;1.00;0.60;0.00
44933;PMS3003;30667;43.614;1.442;2023-04-25T09:32:43;1.00;1.00;0.00
44933;PMS3003;30667;43.614;1.442;2023-04-25T09:35:09;0.20;0.20;0.00
44933;PMS3003;30667;43.614;1.442;2023-04-25T09:37:35;0.00;0.00;0.00
44933;PMS3003;30667;43.614;1.442;2023-04-25T09:40:03;0.50;0.50;0.00
44933;PMS3003;30667;43.614;1.442;2023-04-25T09:42:30;1.00;1.00;0.00
44933;PMS3003;30667;43.614;1.442;2023-04-25T09:44:57;0.60;0.60;0.00
44933;PMS3003;30667;43.614;1.442;2023-04-25T09:47:24;0.00;0.00;0.00
44933;PMS3003;30667;43.614;1.442;2023-04-25T09:49:51;0.00;0.00;0.00
44933;PMS3003;30667;43.614;1.442;2023-04-25T09:52:19;2.00;1.20;0.00
44933;PMS3003;30667;43.614;1.442;2023-04-25T09:54:47;1.00;1.00;0.00
44933;PMS3003;30667;43.614;1.442;2023-04-25T09:57:20;1.00;1.00;0.00
44933;PMS3003;30667;43.614;1.442;2023-04-25T09:59:48;1.00;1.00;0.00
44933;PMS3003;30667;43.614;1.442;2023-04-25T10:02:18;1.00;1.00;0.00
44933;PMS3003;30667;43.614;1.442;2023-04-25T10:04:47;1.00;1.00;0.00
44933;PMS3003;30667;43.614;1.442;2023-04-25T10:07:15;0.80;0.80;0.00
44933;PMS3003;30667;43.614;1.442;2023-04-25T10:09:42;2.00;2.00;1.00
44933;PMS3003;30667;43.614;1.442;2023-04-25T10:12:12;1.00;1.00;0.00
44933;PMS3003;30667;43.614;1.442;2023-04-25T10:14:37;1.75;1.75;0.00
44933;PMS3003;30667;43.614;1.442;2023-04-25T10:17:03;1.00;1.00;0.00
44933;PMS3003;30667;43.614;1.442;2023-04-25T10:19:29;1.00;1.00;0.00
44933;PMS3003;30667;43.614;1.442;2023-04-25T10:21:56;1.00;1.00;0.00
44933;PMS3003;30667;43.614;1.442;2023-04-25T10:24:26;1.00;1.00;0.00
44933;PMS3003;30667;43.614;1.442;2023-04-25T10:26:52;2.00;2.00;0.60
44933;PMS3003;30667;43.614;1.442;2023-04-25T10:29:35;2.50;2.50;0.00
44933;PMS3003;30667;43.614;1.442;2023-04-25T10:32:01;1.00;1.00;0.00
44933;PMS3003;30667;43.614;1.442;2023-04-25T10:37:11;3.00;2.00;0.00
44933;PMS3003;30667;43.614;1.442;2023-04-25T10:39:41;1.00;1.00;0.00
44933;PMS3003;30667;43.614;1.442;2023-04-25T10:42:07;1.20;1.00;0.00
44933;PMS3003;30667;43.614;1.442;2023-04-25T10:44:33;1.00;1.00;0.00
44933;PMS3003;30667;43.614;1.442;2023-04-25T10:47:00;1.00;1.00;0.00
44933;PMS3003;30667;43.614;1.442;2023-04-25T10:49:29;0.40;0.40;0.00
44933;PMS3003;30667;43.614;1.442;2023-04-25T10:52:11;1.00;1.00;0.00
44933;PMS3003;30667;43.614;1.442;2023-04-25T10:54:53;1.00;1.00;0.00
44933;PMS3003;30667;43.614;1.442;2023-04-25T10:57:52;2.20;2.00;0.00
44933;PMS3003;30667;43.614;1.442;2023-04-25T11:00:14;1.80;1.80;0.00
44933;PMS3003;30667;43.614;1.442;2023-04-25T11:02:47;1.00;1.00;0.00
44933;PMS3003;30667;43.614;1.442;2023-04-25T11:05:23;3.40;2.00;0.00
44933;PMS3003;30667;43.614;1.442;2023-04-25T11:07:54;1.00;1.00;0.00
44933;PMS3003;30667;43.614;1.442;2023-04-25T11:10:31;2.40;2.00;0.00
44933;PMS3003;30667;43.614;1.442;2023-04-25T11:12:58;1.00;1.00;0.00
44933;PMS3003;30667;43.614;1.442;2023-04-25T11:15:24;1.00;1.00;0.00
44933;PMS3003;30667;43.614;1.442;2023-04-25T11:17:51;3.00;2.00;0.00
44933;PMS3003;30667;43.614;1.442;2023-04-25T11:20:20;1.20;1.00;0.00
44933;PMS3003;30667;43.614;1.442;2023-04-25T11:22:46;2.00;2.00;0.20
44933;PMS3003;30667;43.614;1.442;2023-04-25T11:25:14;1.60;1.60;0.00
44933;PMS3003;30667;43.614;1.442;2023-04-25T11:30:21;1.00;1.00;0.00
44933;PMS3003;30667;43.614;1.442;2023-04-25T11:32:47;0.60;0.60;0.00
44933;PMS3003;30667;43.614;1.442;2023-04-25T11:35:12;1.00;1.00;0.00
44933;PMS3003;30667;43.614;1.442;2023-04-25T11:37:39;0.00;0.00;0.00
44933;PMS3003;30667;43.614;1.442;2023-04-25T11:40:05;1.00;0.80;0.00
44933;PMS3003;30667;43.614;1.442;2023-04-25T11:42:33;0.60;0.60;0.00
44933;PMS3003;30667;43.614;1.442;2023-04-25T11:44:59;1.00;1.00;0.00
44933;PMS3003;30667;43.614;1.442;2023-04-25T11:47:29;1.00;1.00;0.00
44933;PMS3003;30667;43.614;1.442;2023-04-25T11:50:01;2.00;1.00;0.00
44933;PMS3003;30667;43.614;1.442;2023-04-25T11:55:13;1.00;1.00;0.00
44933;PMS3003;30667;43.614;1.442;2023-04-25T11:57:40;1.00;1.00;0.00
44933;PMS3003;30667;43.614;1.442;2023-04-25T12:00:10;1.00;1.00;0.00
44933;PMS3003;30667;43.614;1.442;2023-04-25T12:02:44;1.00;1.00;0.00
44933;PMS3003;30667;43.614;1.442;2023-04-25T12:05:15;0.20;0.20;0.00
44933;PMS3003;30667;43.614;1.442;2023-04-25T12:07:41;3.00;1.75;0.00
44933;PMS3003;30667;43.614;1.442;2023-04-25T12:10:08;1.00;1.00;0.00
44933;PMS3003;30667;43.614;1.442;2023-04-25T12:12:36;1.00;1.00;0.00
44933;PMS3003;30667;43.614;1.442;2023-04-25T12:15:12;1.00;1.00;0.00
44933;PMS3003;30667;43.614;1.442;2023-04-25T12:17:44;2.40;1.00;0.00
44933;PMS3003;30667;43.614;1.442;2023-04-25T12:20:15;2.00;2.00;0.00
44933;PMS3003;30667;43.614;1.442;2023-04-25T12:22:50;3.00;2.60;0.80
44933;PMS3003;30667;43.614;1.442;2023-04-25T12:28:10;2.00;2.00;0.00
44933;PMS3003;30667;43.614;1.442;2023-04-25T12:30:59;2.00;2.00;0.60
44933;PMS3003;30667;43.614;1.442;2023-04-25T12:33:26;2.40;2.00;0.00
44933;PMS3003;30667;43.614;1.442;2023-04-25T12:35:53;2.80;2.80;1.00
44933;PMS3003;30667;43.614;1.442;2023-04-25T12:38:20;2.00;2.00;0.40
44933;PMS3003;30667;43.614;1.442;2023-04-25T12:40:50;5.60;4.40;2.00
44933;PMS3003;30667;43.614;1.442;2023-04-25T12:43:16;3.00;2.75;1.00
44933;PMS3003;30667;43.614;1.442;2023-04-25T12:45:42;2.00;2.00;0.80
44933;PMS3003;30667;43.614;1.442;2023-04-25T12:48:07;3.00;2.00;0.25
44933;PMS3003;30667;43.614;1.442;2023-04-25T12:50:33;2.75;2.00;0.00
44933;PMS3003;30667;43.614;1.442;2023-04-25T12:52:58;3.75;3.75;1.50
44933;PMS3003;30667;43.614;1.442;2023-04-25T12:55:23;2.75;2.00;0.00
44933;PMS3003;30667;43.614;1.442;2023-04-25T12:57:49;3.00;3.00;1.00
44933;PMS3003;30667;43.614;1.442;2023-04-25T13:00:14;3.00;3.00;1.50
44933;PMS3003;30667;43.614;1.442;2023-04-25T13:02:43;3.40;3.40;2.00
44933;PMS3003;30667;43.614;1.442;2023-04-25T13:05:08;3.25;3.00;2.00
44933;PMS3003;30667;43.614;1.442;2023-04-25T13:07:34;4.00;4.00;2.00
44933;PMS3003;30667;43.614;1.442;2023-04-25T13:09:59;3.25;3.25;1.25
44933;PMS3003;30667;43.614;1.442;2023-04-25T13:12:25;2.80;2.80;1.00
44933;PMS3003;30667;43.614;1.442;2023-04-25T13:14:50;3.50;3.50;1.50
44933;PMS3003;30667;43.614;1.442;2023-04-25T13:17:16;3.00;3.00;0.00
44933;PMS3003;30667;43.614;1.442;2023-04-25T13:19:41;3.75;3.75;1.25
44933;PMS3003;30667;43.614;1.442;2023-04-25T13:22:06;3.00;3.00;1.00
44933;PMS3003;30667;43.614;1.442;2023-04-25T13:24:32;2.50;2.25;0.00
44933;PMS3003;30667;43.614;1.442;2023-04-25T13:26:57;3.00;3.00;1.00
44933;PMS3003;30667;43.614;1.442;2023-04-25T13:29:23;3.00;3.00;1.00
44933;PMS3003;30667;43.614;1.442;2023-04-25T13:31:48;2.75;2.00;0.00
44933;PMS3003;30667;43.614;1.442;2023-04-25T13:34:13;3.25;3.25;1.00
44933;PMS3003;30667;43.614;1.442;2023-04-25T13:36:39;3.00;3.00;1.00
44933;PMS3003;30667;43.614;1.442;2023-04-25T13:39:05;2.75;2.25;0.50
44933;PMS3003;30667;43.614;1.442;2023-04-25T13:41:30;3.00;2.75;1.00
44933;PMS3003;30667;43.614;1.442;2023-04-25T13:43:56;2.00;2.00;0.75
44933;PMS3003;30667;43.614;1.442;2023-04-25T13:46:21;2.00;2.00;0.00
44933;PMS3003;30667;43.614;1.442;2023-04-25T13:48:47;1.25;1.25;0.00
44933;PMS3003;30667;43.614;1.442;2023-04-25T13:51:14;2.00;2.00;0.00
44933;PMS3003;30667;43.614;1.442;2023-04-25T13:53:41;1.80;1.80;0.00
44933;PMS3003;30667;43.614;1.442;2023-04-25T13:56:06;2.00;1.75;0.25
44933;PMS3003;30667;43.614;1.442;2023-04-25T13:58:31;2.00;2.00;0.00
44933;PMS3003;30667;43.614;1.442;2023-04-25T14:00:58;2.00;1.60;0.00
44933;PMS3003;30667;43.614;1.442;2023-04-25T14:03:23;2.00;2.00;0.00
44933;PMS3003;30667;43.614;1.442;2023-04-25T14:05:49;1.40;1.00;0.00
44933;PMS3003;30667;43.614;1.442;2023-04-25T14:08:15;1.25;1.25;0.00
44933;PMS3003;30667;43.614;1.442;2023-04-25T14:10:40;1.00;1.00;0.00
44933;PMS3003;30667;43.614;1.442;2023-04-25T14:13:05;1.00;1.00;0.00
44933;PMS3003;30667;43.614;1.442;2023-04-25T14:15:32;1.00;1.00;0.00
44933;PMS3003;30667;43.614;1.442;2023-04-25T14:17:57;2.75;2.00;0.00
44933;PMS3003;30667;43.614;1.442;2023-04-25T14:20:22;2.00;2.00;0.00
44933;PMS3003;30667;43.614;1.442;2023-04-25T14:22:48;2.00;2.00;0.80
44933;PMS3003;30667;43.614;1.442;2023-04-25T14:25:14;2.00;1.50;0.00
44933;PMS3003;30667;43.614;1.442;2023-04-25T14:27:40;2.00;2.00;0.50
44933;PMS3003;30667;43.614;1.442;2023-04-25T14:30:05;2.00;2.00;0.50
44933;PMS3003;30667;43.614;1.442;2023-04-25T14:32:31;1.40;1.40;0.00